M/T Havva Ana — V7RE3 — position and weather

sailwx.info

Track history (hours):
 
Tides and Currents Weather Stations Pressure Air Temp Water Temp Dewpoint Dewpoint Depression Visibility Wind Speed Wind Dir Waves Ship Positions

M/T Havva Ana

Last reported at 2015-May-27 09:24 UTC. Time now 2015-May-27 09:58 UTC.
Position N 51°53' E 004°21'.

Length 124 m; draft 5.5 m.

Type: Tanker. MMSI: 538003488.

Date/timePositionNaut miles runAvg speedWind from/ knotsBaromVisibWave heightAir tempDewpointWater temp
2015-May-27 09:24N 51°53' E 004°21'0 0.1
2015-May-27 08:33N 51°53' E 004°21'1 1.2
2015-May-27 07:33N 51°53' E 004°23'0 0.0
2015-May-27 06:33N 51°53' E 004°23'0 0.0
2015-May-27 05:30N 51°53' E 004°23'0 0.0
2015-May-27 04:33N 51°53' E 004°23'0 0.0
2015-May-27 03:33N 51°53' E 004°23'0 0.0
2015-May-27 02:33N 51°53' E 004°23'0 0.0
2015-May-27 01:33N 51°53' E 004°23'0 0.0
2015-May-27 00:33N 51°53' E 004°23'0 0.0
2015-May-26 23:30N 51°53' E 004°23'0 0.0
2015-May-26 22:33N 51°53' E 004°23'0 0.0
2015-May-26 21:33N 51°53' E 004°23'0 0.0
2015-May-26 20:33N 51°53' E 004°23'0 0.0
2015-May-26 19:33N 51°53' E 004°23'0 0.0
2015-May-26 18:33N 51°53' E 004°23'0 0.0
2015-May-26 17:30N 51°53' E 004°23'0 0.0
2015-May-26 16:33N 51°53' E 004°23'2 1.5
2015-May-26 15:33N 51°54' E 004°20'2 1.7
2015-May-26 14:28N 51°53' E 004°17'0 0.0
2015-May-26 13:28N 51°53' E 004°17'0 0.0
2015-May-26 12:31N 51°53' E 004°17'0 0.0
2015-May-26 11:31N 51°53' E 004°17'0 0.0
2015-May-26 10:16N 51°53' E 004°17'0 0.0
2015-May-26 09:04N 51°53' E 004°17'0 0.0
2015-May-26 08:28N 51°53' E 004°17'0 0.0
2015-May-26 06:28N 51°53' E 004°17'0 0.0
2015-May-26 04:16N 51°53' E 004°17'0 0.0
2015-May-26 03:04N 51°53' E 004°17'0 0.0
2015-May-26 02:28N 51°53' E 004°17'0 0.0
2015-May-26 01:28N 51°53' E 004°17'0 0.0
2015-May-25 23:28N 51°53' E 004°17'0 0.0
2015-May-25 22:16N 51°53' E 004°17'0 0.0
2015-May-25 21:22N 51°53' E 004°17'0 0.1
2015-May-25 20:29N 51°53' E 004°17'4 4.1
2015-May-25 19:33N 51°56' E 004°13'6 6.1
2015-May-25 18:33N 51°58' E 004°04'1 1.0
2015-May-25 17:30N 51°58' E 004°02'0 0.0
2015-May-25 16:33N 51°58' E 004°02'0 0.0
2015-May-25 15:33N 51°58' E 004°02'0 0.0
2015-May-25 14:33N 51°58' E 004°02'0 0.0
2015-May-25 13:33N 51°58' E 004°02'0 0.0
2015-May-25 12:33N 51°58' E 004°02'0 0.0
2015-May-25 11:33N 51°58' E 004°02'0 0.0
2015-May-25 10:33N 51°58' E 004°02'0 0.0
2015-May-25 09:33N 51°58' E 004°02'0 0.0
2015-May-25 08:21N 51°58' E 004°02'0 0.0
2015-May-25 07:33N 51°58' E 004°02'0 0.0
2015-May-25 06:33N 51°58' E 004°02'0 0.0
2015-May-25 05:33N 51°58' E 004°02'0 0.0
2015-May-25 04:33N 51°58' E 004°02'0 0.0
2015-May-25 03:33N 51°58' E 004°02'0 0.0
2015-May-25 02:33N 51°58' E 004°02'0 0.0
2015-May-25 01:33N 51°58' E 004°02'0 0.0
2015-May-25 00:33N 51°58' E 004°02'0 0.0
2015-May-24 23:33N 51°58' E 004°02'0 0.0
2015-May-24 22:33N 51°58' E 004°02'0 0.0
2015-May-24 21:33N 51°58' E 004°02'0 0.0
2015-May-24 20:33N 51°58' E 004°02'0 0.0
2015-May-24 19:33N 51°58' E 004°02'2 1.6
2015-May-24 18:33N 51°59' E 004°03'1111.1
2015-May-24 17:33N 51°59' E 003°45'1212.4
2015-May-24 16:33N 51°56' E 003°26'1211.8
2015-May-24 15:33N 51°52' E 003°07'2210.6
2015-May-24 13:26N 51°42' E 002°35'910.1
2015-May-24 12:33N 51°35' E 002°25'10 9.8
2015-May-24 11:33N 51°28' E 002°15'1010.1
2015-May-24 10:34N 51°19' E 002°08'10 9.6
2015-May-24 09:33N 51°12' E 001°58'1110.5
2015-May-24 08:33N 51°05' E 001°45'1111.1
2015-May-24 07:33N 50°57' E 001°32'1211.8
2015-May-24 06:33N 50°47' E 001°24'1111.5
2015-May-24 05:33N 50°38' E 001°11'1211.6
2015-May-24 04:33N 50°31' E 000°57'2711.7
2015-May-24 02:14N 50°23' E 000°16'912.6
2015-May-24 01:33N 50°21' E 000°03'2813.3
2015-May-23 23:27N 50°13' W 000°38'1213.4
2015-May-23 22:33N 50°09' W 000°56'1312.8
2015-May-23 21:33N 50°06' W 001°16'626120.5
2015-May-23 16:21N 57°37' E 011°00'  
2015-May-20 11:33N 39°17' W 009°57'7 7.3
2015-May-20 10:33N 39°10' W 009°57'7 7.0
2015-May-20 09:33N 39°03' W 009°55'7 6.9
2015-May-20 08:33N 38°56' W 009°57'7 7.0
2015-May-20 07:33N 38°49' W 009°59'7 6.8
2015-May-20 06:33N 38°42' W 009°58'7 6.7
2015-May-20 05:32N 38°36' W 009°56'7 6.6
2015-May-20 04:33N 38°29' W 009°54'7 6.6
2015-May-20 03:33N 38°23' W 009°53'6 6.4
2015-May-20 02:33N 38°17' W 009°52'34 5.6
2015-May-19 20:33N 37°46' W 009°32'6 6.2
2015-May-19 19:32N 37°42' W 009°27'5 5.4
2015-May-19 18:32N 37°36' W 009°27'5 5.3
2015-May-19 17:32N 37°31' W 009°27'208 7.7
2015-May-18 14:24N 35°58' W 005°35'910.0
2015-May-18 13:29N 36°00' W 005°25'9 9.4
2015-May-18 12:33N 36°02' W 005°14'12011.4
2015-May-18 02:06N 36°21' W 002°48'812.2
2015-May-18 01:25N 36°23' W 002°38'1112.2
2015-May-18 00:33N 36°25' W 002°25'8712.4
2015-May-17 17:32N 36°37' W 000°37'  
Track history (hours):
 
Tides and Currents Weather Stations Pressure Air Temp Water Temp Dewpoint Dewpoint Depression Visibility Wind Speed Wind Dir Waves Ship Positions

M/T Havva Ana

Last reported at 2015-May-27 09:24 UTC. Time now 2015-May-27 09:58 UTC.
Position N 51°53' E 004°21'.

Length 124 m; draft 5.5 m.

Type: Tanker. MMSI: 538003488.

Date/timePositionNaut miles runAvg speedWind from/ knotsBaromVisibWave heightAir tempDewpointWater temp
2015-May-27 09:24N 51°53' E 004°21'0 0.1
2015-May-27 08:33N 51°53' E 004°21'1 1.2
2015-May-27 07:33N 51°53' E 004°23'0 0.0
2015-May-27 06:33N 51°53' E 004°23'0 0.0
2015-May-27 05:30N 51°53' E 004°23'0 0.0
2015-May-27 04:33N 51°53' E 004°23'0 0.0
2015-May-27 03:33N 51°53' E 004°23'0 0.0
2015-May-27 02:33N 51°53' E 004°23'0 0.0
2015-May-27 01:33N 51°53' E 004°23'0 0.0
2015-May-27 00:33N 51°53' E 004°23'0 0.0
2015-May-26 23:30N 51°53' E 004°23'0 0.0
2015-May-26 22:33N 51°53' E 004°23'0 0.0
2015-May-26 21:33N 51°53' E 004°23'0 0.0
2015-May-26 20:33N 51°53' E 004°23'0 0.0
2015-May-26 19:33N 51°53' E 004°23'0 0.0
2015-May-26 18:33N 51°53' E 004°23'0 0.0
2015-May-26 17:30N 51°53' E 004°23'0 0.0
2015-May-26 16:33N 51°53' E 004°23'2 1.5
2015-May-26 15:33N 51°54' E 004°20'2 1.7
2015-May-26 14:28N 51°53' E 004°17'0 0.0
2015-May-26 13:28N 51°53' E 004°17'0 0.0
2015-May-26 12:31N 51°53' E 004°17'0 0.0
2015-May-26 11:31N 51°53' E 004°17'0 0.0
2015-May-26 10:16N 51°53' E 004°17'0 0.0
2015-May-26 09:04N 51°53' E 004°17'0 0.0
2015-May-26 08:28N 51°53' E 004°17'0 0.0
2015-May-26 06:28N 51°53' E 004°17'0 0.0
2015-May-26 04:16N 51°53' E 004°17'0 0.0
2015-May-26 03:04N 51°53' E 004°17'0 0.0
2015-May-26 02:28N 51°53' E 004°17'0 0.0
2015-May-26 01:28N 51°53' E 004°17'0 0.0
2015-May-25 23:28N 51°53' E 004°17'0 0.0
2015-May-25 22:16N 51°53' E 004°17'0 0.0
2015-May-25 21:22N 51°53' E 004°17'0 0.1
2015-May-25 20:29N 51°53' E 004°17'4 4.1
2015-May-25 19:33N 51°56' E 004°13'6 6.1
2015-May-25 18:33N 51°58' E 004°04'1 1.0
2015-May-25 17:30N 51°58' E 004°02'0 0.0
2015-May-25 16:33N 51°58' E 004°02'0 0.0
2015-May-25 15:33N 51°58' E 004°02'0 0.0
2015-May-25 14:33N 51°58' E 004°02'0 0.0
2015-May-25 13:33N 51°58' E 004°02'0 0.0
2015-May-25 12:33N 51°58' E 004°02'0 0.0
2015-May-25 11:33N 51°58' E 004°02'0 0.0
2015-May-25 10:33N 51°58' E 004°02'0 0.0
2015-May-25 09:33N 51°58' E 004°02'0 0.0
2015-May-25 08:21N 51°58' E 004°02'0 0.0
2015-May-25 07:33N 51°58' E 004°02'0 0.0
2015-May-25 06:33N 51°58' E 004°02'0 0.0
2015-May-25 05:33N 51°58' E 004°02'0 0.0
2015-May-25 04:33N 51°58' E 004°02'0 0.0
2015-May-25 03:33N 51°58' E 004°02'0 0.0
2015-May-25 02:33N 51°58' E 004°02'0 0.0
2015-May-25 01:33N 51°58' E 004°02'0 0.0
2015-May-25 00:33N 51°58' E 004°02'0 0.0
2015-May-24 23:33N 51°58' E 004°02'0 0.0
2015-May-24 22:33N 51°58' E 004°02'0 0.0
2015-May-24 21:33N 51°58' E 004°02'0 0.0
2015-May-24 20:33N 51°58' E 004°02'0 0.0
2015-May-24 19:33N 51°58' E 004°02'2 1.6
2015-May-24 18:33N 51°59' E 004°03'1111.1
2015-May-24 17:33N 51°59' E 003°45'1212.4
2015-May-24 16:33N 51°56' E 003°26'1211.8
2015-May-24 15:33N 51°52' E 003°07'2210.6
2015-May-24 13:26N 51°42' E 002°35'910.1
2015-May-24 12:33N 51°35' E 002°25'10 9.8
2015-May-24 11:33N 51°28' E 002°15'1010.1
2015-May-24 10:34N 51°19' E 002°08'10 9.6
2015-May-24 09:33N 51°12' E 001°58'1110.5
2015-May-24 08:33N 51°05' E 001°45'1111.1
2015-May-24 07:33N 50°57' E 001°32'1211.8
2015-May-24 06:33N 50°47' E 001°24'1111.5
2015-May-24 05:33N 50°38' E 001°11'1211.6
2015-May-24 04:33N 50°31' E 000°57'2711.7
2015-May-24 02:14N 50°23' E 000°16'912.6
2015-May-24 01:33N 50°21' E 000°03'2813.3
2015-May-23 23:27N 50°13' W 000°38'1213.4
2015-May-23 22:33N 50°09' W 000°56'1312.8
2015-May-23 21:33N 50°06' W 001°16'626120.5
2015-May-23 16:21N 57°37' E 011°00'  
2015-May-20 11:33N 39°17' W 009°57'7 7.3
2015-May-20 10:33N 39°10' W 009°57'7 7.0
2015-May-20 09:33N 39°03' W 009°55'7 6.9
2015-May-20 08:33N 38°56' W 009°57'7 7.0
2015-May-20 07:33N 38°49' W 009°59'7 6.8
2015-May-20 06:33N 38°42' W 009°58'7 6.7
2015-May-20 05:32N 38°36' W 009°56'7 6.6
2015-May-20 04:33N 38°29' W 009°54'7 6.6
2015-May-20 03:33N 38°23' W 009°53'6 6.4
2015-May-20 02:33N 38°17' W 009°52'34 5.6
2015-May-19 20:33N 37°46' W 009°32'6 6.2
2015-May-19 19:32N 37°42' W 009°27'5 5.4
2015-May-19 18:32N 37°36' W 009°27'5 5.3
2015-May-19 17:32N 37°31' W 009°27'208 7.7
2015-May-18 14:24N 35°58' W 005°35'910.0
2015-May-18 13:29N 36°00' W 005°25'9 9.4
2015-May-18 12:33N 36°02' W 005°14'12011.4
2015-May-18 02:06N 36°21' W 002°48'812.2
2015-May-18 01:25N 36°23' W 002°38'1112.2
2015-May-18 00:33N 36°25' W 002°25'8712.4
2015-May-17 17:32N 36°37' W 000°37'  

Dump ship's entire track history